Flight Track Log - Related Links

Times and Time Zones

All times are in EDT time to prevent confusion due to time zone crossing. See the AAY289 flight status page for this flight to view local times or setup timezone preferences in your user account.

Time Position Orientation Groundspeed Altitude Reporting Facility
EDT Latitude Longitude Course Direction KTS MPH feet Rate Location/Type
Sun 11:45:18 PM 36.1122 -115.1469 288° West 180 207 3,000  Level Los Angeles Center
Sun 11:46:43 PM 36.1314 -115.2189 243° Southwest 242 278 5,100 1,875 Climbing Los Angeles Center
Sun 11:47:42 PM 36.0986 -115.2989 199° South 255 293 7,500 1,866 Climbing Los Angeles Center
Sun 11:48:42 PM 36.0300 -115.3278 204° Southwest 299 344 8,800 750 Climbing Los Angeles Center
Sun 11:49:42 PM 35.9553 -115.3694 213° Southwest 294 338 9,000 850 Climbing Los Angeles Center
Sun 11:50:42 PM 35.8908 -115.4214 266° West 312 359 10,500 1,250 Climbing Los Angeles Center
Sun 11:51:42 PM 35.8850 -115.5342 273° West 348 400 11,500 1,500 Climbing Los Angeles Center
Sun 11:52:42 PM 35.8897 -115.6675 273° West 401 461 13,500 1,950 Climbing Los Angeles Center
Sun 11:53:42 PM 35.8944 -115.7881 271° West 409 471 15,400 2,000 Climbing Los Angeles Center
Sun 11:54:42 PM 35.8969 -115.9469 308° West 404 465 17,500 1,950 Climbing Los Angeles Center
Sun 11:55:42 PM 35.9594 -116.0444 317° Northwest 396 456 19,300 1,800 Climbing Los Angeles Center
Sun 11:56:42 PM 36.0556 -116.1572 317° Northwest 424 488 21,100 1,600 Climbing Los Angeles Center
Sun 11:57:42 PM 36.1408 -116.2550 317° Northwest 424 488 22,500 1,400 Climbing Los Angeles Center
Sun 11:58:42 PM 36.2325 -116.3606 318° Northwest 430 495 23,900 1,550 Climbing Los Angeles Center
Sun 11:59:42 PM 36.3242 -116.4642 316° Northwest 437 503 25,600 1,750 Climbing Los Angeles Center
Mon 12:00:42 AM 36.4114 -116.5678 317° Northwest 437 503 27,400 1,600 Climbing Los Angeles Center
Mon 12:01:42 AM 36.4986 -116.6689 316° Northwest 437 503 28,800 1,300 Climbing Los Angeles Center
Mon 12:02:42 AM 36.5794 -116.7653 328° Northwest 436 502 30,000 1,050 Climbing Los Angeles Center
Mon 12:03:42 AM 36.6769 -116.8411 331° Northwest 431 496 30,900 1,000 Climbing Los Angeles Center
Mon 12:04:42 AM 36.7892 -116.9172 327° Northwest 418 481 32,000 400 Climbing Los Angeles Center
Mon 12:06:27 AM 36.9525 -117.0492 330° Northwest 415 478 32,000  Level Oakland Center
Mon 12:07:27 AM 37.0550 -117.1244 339° North 415 478 32,000  Level Oakland Center
Mon 12:08:28 AM 37.1675 -117.1786 342° North 420 483 32,000  Level Oakland Center
Mon 12:09:27 AM 37.2794 -117.2253 343° North 420 483 32,000  Level Oakland Center
Mon 12:10:27 AM 37.3872 -117.2669 342° North 414 476 32,000  Level Oakland Center
Mon 12:11:27 AM 37.4950 -117.3111 343° North 409 471 32,000  Level Oakland Center
Mon 12:12:28 AM 37.6028 -117.3531 342° North 409 471 32,000  Level Oakland Center
Mon 12:13:27 AM 37.7189 -117.4000 342° North 403 464 32,000  Level Oakland Center
Mon 12:14:27 AM 37.8244 -117.4422 342° North 398 458 32,000  Level Oakland Center
Mon 12:15:28 AM 37.9258 -117.4847 343° North 391 450 32,000  Level Oakland Center
Mon 12:16:27 AM 38.0272 -117.5247 343° North 391 450 32,000  Level Oakland Center
Mon 12:17:27 AM 38.1328 -117.5647 342° North 391 450 32,000  Level Oakland Center
Mon 12:18:28 AM 38.2339 -117.6075 343° North 386 444 32,000  Level Oakland Center
Mon 12:19:27 AM 38.3375 -117.6478 342° North 386 444 32,000  Level Oakland Center
Mon 12:20:27 AM 38.4408 -117.6908 342° North 391 450 32,000  Level Oakland Center
Mon 12:21:27 AM 38.5464 -117.7339 342° North 391 450 32,000  Level Oakland Center
Mon 12:22:27 AM 38.6264 -117.7675 342° North 391 450 32,000  Level Oakland Center
Mon 12:23:27 AM 38.7403 -117.8156 342° North 391 450 32,000  Level Oakland Center
Mon 12:24:27 AM 38.8436 -117.8592 343° North 391 450 32,000  Level Oakland Center
Mon 12:25:27 AM 38.9469 -117.9000 341° North 391 450 32,000  Level Oakland Center
Mon 12:26:27 AM 39.0483 -117.9439 341° North 391 450 32,000  Level Oakland Center
Mon 12:27:27 AM 39.1536 -117.9903 342° North 391 450 32,000  Level Oakland Center
Mon 12:28:27 AM 39.2569 -118.0342 342° North 391 450 32,000  Level Oakland Center
Mon 12:29:27 AM 39.3603 -118.0783 343° North 391 450 32,000  Level Oakland Center
Mon 12:30:27 AM 39.4633 -118.1197 341° North 391 450 32,000  Level Oakland Center
Mon 12:31:27 AM 39.5689 -118.1667 343° North 391 450 32,000  Level Oakland Center
Mon 12:32:27 AM 39.6719 -118.2086 341° North 391 450 32,000  Level Oakland Center
Mon 12:33:27 AM 39.7753 -118.2558 342° North 391 450 32,000  Level Oakland Center
Mon 12:35:01 AM 39.9392 -118.3247 341° North 398 458 32,000  Level Salt Lake Center
Mon 12:36:03 AM 40.0408 -118.3706 342° North 394 453 32,000  Level Salt Lake Center
Mon 12:37:05 AM 40.1617 -118.4214 341° North 393 452 32,000  Level Salt Lake Center
Mon 12:38:06 AM 40.2614 -118.4669 342° North 395 455 32,000  Level Salt Lake Center
Mon 12:39:08 AM 40.3611 -118.5103 341° North 393 452 32,000  Level Salt Lake Center
Mon 12:40:09 AM 40.4778 -118.5628 342° North 395 455 32,000  Level Salt Lake Center
Mon 12:41:11 AM 40.5775 -118.6056 341° North 394 453 32,000  Level Salt Lake Center
Mon 12:42:13 AM 40.6936 -118.6572 342° North 394 453 32,000  Level Salt Lake Center
Mon 12:43:14 AM 40.7925 -118.7008 341° North 391 450 32,000  Level Salt Lake Center
Mon 12:44:16 AM 40.8922 -118.7472 341° North 394 453 32,000  Level Salt Lake Center
Mon 12:45:17 AM 41.0089 -118.8000 343° North 395 455 32,000  Level Salt Lake Center
Mon 12:46:19 AM 41.1092 -118.8419 341° North 395 455 32,000  Level Salt Lake Center
Mon 12:47:20 AM 41.2239 -118.8947 341° North 393 452 32,000  Level Salt Lake Center
Mon 12:48:22 AM 41.3217 -118.9392 340° North 388 447 32,000  Level Salt Lake Center
Mon 12:49:23 AM 41.4186 -118.9858 342° North 388 447 32,000  Level Salt Lake Center
Mon 12:50:25 AM 41.5353 -119.0367 341° North 392 451 32,000  Level Salt Lake Center
Mon 12:51:26 AM 41.6347 -119.0833 342° North 394 453 32,000  Level Salt Lake Center
Mon 12:52:27 AM 41.7517 -119.1347 341° North 394 453 32,000  Level Salt Lake Center
Mon 12:53:29 AM 41.8519 -119.1819 341° North 396 456 32,000  Level Salt Lake Center
Mon 12:54:30 AM 41.9497 -119.2283 343° North 393 452 32,000  Level Salt Lake Center
Mon 12:55:32 AM 42.0664 -119.2772 341° North 391 450 32,000  Level Salt Lake Center
Mon 12:56:33 AM 42.1644 -119.3231 341° North 390 449 32,000  Level Salt Lake Center
Mon 12:57:34 AM 42.2786 -119.3756 340° North 388 447 32,000  Level Salt Lake Center
Mon 12:58:36 AM 42.3767 -119.4231 342° North 390 449 32,000  Level Salt Lake Center
Mon 12:59:37 AM 42.4789 -119.4692 341° North 391 450 32,000  Level Salt Lake Center
Mon 01:00:39 AM 42.5808 -119.5172 341° North 391 450 32,000  Level Salt Lake Center
Mon 01:01:40 AM 42.6828 -119.5642 341° North 390 449 32,000  Level Salt Lake Center
Mon 01:02:41 AM 42.7850 -119.6131 341° North 390 449 32,000  Level Salt Lake Center
Mon 01:03:42 AM 42.9089 -119.6708 341° North 394 453 32,000  Level Salt Lake Center
Mon 01:04:44 AM 43.0103 -119.7192 341° North 391 450 32,000  Level Salt Lake Center
Mon 01:05:45 AM 43.1114 -119.7672 341° North 389 448 32,000  Level Salt Lake Center
Mon 01:06:46 AM 43.2136 -119.8147 339° North 389 448 32,000  Level Salt Lake Center
Mon 01:07:47 AM 43.3136 -119.8661 342° North 388 447 32,000  Level Salt Lake Center
Mon 01:08:55 AM 43.4369 -119.9219 340° North 391 450 32,000  Level Seattle Center
Mon 01:09:56 AM 43.5381 -119.9719 340° North 389 448 32,000  Level Seattle Center
Mon 01:10:57 AM 43.6386 -120.0217 340° North 388 447 32,000  Level Seattle Center
Mon 01:11:58 AM 43.7389 -120.0733 341° North 387 445 32,000  Level Seattle Center
Mon 01:12:58 AM 43.8400 -120.1214 341° North 386 444 32,000  Level Seattle Center
Mon 01:13:59 AM 43.9411 -120.1697 340° North 387 445 32,000  Level Seattle Center
Mon 01:15:00 AM 44.0406 -120.2206 341° North 384 442 32,000  Level Seattle Center
Mon 01:16:00 AM 44.1431 -120.2689 341° North 387 445 32,000  Level Seattle Center
Mon 01:17:01 AM 44.2450 -120.3192 341° North 389 448 32,000  Level Seattle Center
Mon 01:18:01 AM 44.3669 -120.3783 340° North 389 448 32,000  Level Seattle Center
Mon 01:19:02 AM 44.4719 -120.4331 341° North 394 453 32,000  Level Seattle Center
Mon 01:20:03 AM 44.5753 -120.4839 340° North 396 456 32,000  Level Seattle Center
Mon 01:21:03 AM 44.6781 -120.5356 340° North 395 455 32,000  Level Seattle Center
Mon 01:22:04 AM 44.7811 -120.5894 341° North 395 455 32,000  Level Seattle Center
Mon 01:23:05 AM 44.8844 -120.6406 340° North 394 453 32,000  Level Seattle Center
Mon 01:24:05 AM 44.9872 -120.6939 340° North 394 453 32,000  Level Seattle Center
Mon 01:25:06 AM 45.0903 -120.7464 341° North 394 453 32,000  Level Seattle Center
Mon 01:26:06 AM 45.1944 -120.7981 340° North 396 456 32,000  Level Seattle Center
Mon 01:27:07 AM 45.2975 -120.8517 340° North 395 455 32,000  Level Seattle Center
Mon 01:28:08 AM 45.4014 -120.9064 340° North 399 459 32,000  Level Seattle Center
Mon 01:29:08 AM 45.5058 -120.9608 340° North 401 461 32,000  Level Seattle Center
Mon 01:30:09 AM 45.6086 -121.0147 340° North 398 458 32,000  Level Seattle Center
Mon 01:31:09 AM 45.7122 -121.0686 340° North 398 458 32,000  Level Seattle Center
Mon 01:32:10 AM 45.8142 -121.1214 340° North 395 455 32,000  Level Seattle Center
Mon 01:33:11 AM 45.9178 -121.1769 340° North 399 459 32,000  Level Seattle Center
Mon 01:34:11 AM 46.0233 -121.2308 340° North 402 463 32,000  Level Seattle Center
Mon 01:35:12 AM 46.1481 -121.2975 340° North 401 461 32,000  Level Seattle Center
Mon 01:36:12 AM 46.2503 -121.3528 340° North 398 458 32,000  Level Seattle Center
Mon 01:37:13 AM 46.3525 -121.4075 339° North 395 455 32,000  Level Seattle Center
Mon 01:38:13 AM 46.4531 -121.4625 339° North 392 451 32,000  Level Seattle Center
Mon 01:39:14 AM 46.5539 -121.5175 340° North 390 449 32,000  Level Seattle Center
Mon 01:40:14 AM 46.6564 -121.5733 340° North 394 453 32,000  Level Seattle Center
Mon 01:41:15 AM 46.7542 -121.6261 340° North 399 459 32,000  Level Seattle Center
Mon 01:42:16 AM 46.8558 -121.6817 340° North 397 457 32,000  Level Seattle Center
Mon 01:43:16 AM 46.9572 -121.7369 339° North 395 455 32,000  Level Seattle Center
Mon 01:44:17 AM 47.0786 -121.8039 339° North 395 455 32,000  Level Seattle Center
Mon 01:45:17 AM 47.1819 -121.8631 339° North 400 460 32,000  Level Seattle Center
Mon 01:46:18 AM 47.2839 -121.9194 339° North 399 459 32,000 -545 Level Seattle Center
Mon 01:47:18 AM 47.3875 -121.9778 340° North 403 464 30,900 -1,686 Descending Seattle Center
Mon 01:48:19 AM 47.4894 -122.0342 339° North 400 460 28,600 -2,182 Descending Seattle Center
Mon 01:49:19 AM 47.5892 -122.0922 339° North 395 455 26,500 -2,083 Descending Seattle Center
Mon 01:50:20 AM 47.6875 -122.1481 341° North 391 450 24,400 -2,083 Descending Seattle Center
Mon 01:51:20 AM 47.7867 -122.1994 338° Northwest 390 449 22,300 -2,331 Descending Seattle Center
Mon 01:52:21 AM 47.9028 -122.2694 347° North 386 444 19,700 -2,430 Descending Seattle Center
Mon 01:53:21 AM 47.9989 -122.3033 350° North 359 413 17,400 -2,182 Descending Seattle Center
Mon 01:54:22 AM 48.0933 -122.3286 347° North 350 403 15,300 -2,231 Descending Seattle Center
Mon 01:55:22 AM 48.1839 -122.3600 350° North 340 391 12,900 -2,281 Descending Seattle Center
Mon 01:56:23 AM 48.2753 -122.3836 350° North 339 390 10,700 -1,438 Descending Seattle Center
Mon 01:57:23 AM 48.3617 -122.4069 345° North 318 366 10,000 -893 Descending Seattle Center
Mon 01:58:24 AM 48.4447 -122.4403 341° North 313 360 8,900 -1,388 Descending Seattle Center
Mon 01:59:24 AM 48.5200 -122.4789 339° North 292 336 7,200 -2,033 Descending Seattle Center
Mon 02:00:25 AM 48.5950 -122.5225 332° Northwest 288 331 4,800 -1,875 Descending Seattle Center
Mon 02:01:16 AM 48.6500 -122.5667 327° Northwest 270 311 3,700 -703 Descending Vancouver Center
Mon 02:02:16 AM 48.7000 -122.6167 351° North 240 276 3,500 -450 Descending Vancouver Center
Mon 02:03:16 AM 48.7667 -122.6333 342° North 240 276 2,800 -700 Descending Vancouver Center
Mon 02:04:16 AM 48.8333 -122.6667 North 230 265 2,100 -400 Descending Vancouver Center
Mon 02:05:16 AM 48.9000 -122.6500 18° North 230 265 2,000  Descending Vancouver Center
Mon 02:06:16 AM 48.9333 -122.6333 90° East 210 242 2,100  Climbing Vancouver Center
Mon 02:07:16 AM 48.9333 -122.5500 162° South 170 196 2,000 -50 Descending Vancouver Center
Mon 02:08:16 AM 48.9000 -122.5333 180° South 160 184 2,000 -300 Level Vancouver Center
Mon 02:09:16 AM 48.8500 -122.5333 180° South 150 173 1,400 -650 Descending Vancouver Center
Mon 02:10:16 AM 48.8167 -122.5333 180° South 140 161 700 -600 Descending Vancouver Center
Mon 02:11:16 AM 48.7667 -122.5333 180° South 140 161 200 -500 Descending Vancouver Center

Login

Don't have an account? Register now (free) for customized features, flight alerts, and more!